createdAt,value
2019-05-26T00:02:48.391Z,17.33
2019-05-26T00:08:13.868Z,15.93
2019-05-26T00:13:39.132Z,21.83
2019-05-26T00:19:04.267Z,19.50
2019-05-26T00:24:29.806Z,18.83
2019-05-26T00:29:54.951Z,18.67
2019-05-26T00:35:20.221Z,16.80
2019-05-26T00:40:47.158Z,16.70
2019-05-26T00:46:12.573Z,18.37
2019-05-26T00:51:37.764Z,19.03
2019-05-26T00:57:03.354Z,16.87
2019-05-26T01:02:28.960Z,16.77
2019-05-26T01:08:05.659Z,19.67
2019-05-26T01:13:22.362Z,16.50
2019-05-26T01:18:44.754Z,17.40
2019-05-26T01:24:06.960Z,19.23
2019-05-26T01:29:15.126Z,17.30
2019-05-26T01:34:23.250Z,16.87
2019-05-26T01:39:38.446Z,19.13
2019-05-26T01:45:08.728Z,18.50
2019-05-26T01:50:35.054Z,22.10
2019-05-26T01:55:47.978Z,22.53
2019-05-26T02:01:00.894Z,28.43
2019-05-26T02:06:11.711Z,23.97
2019-05-26T02:11:30.063Z,23.83
2019-05-26T02:16:37.408Z,21.87
2019-05-26T02:21:46.240Z,28.03
2019-05-26T02:27:00.146Z,22.27
2019-05-26T02:32:25.623Z,28.23
2019-05-26T02:37:51.092Z,24.23
2019-05-26T02:43:16.393Z,26.80
2019-05-26T02:48:41.912Z,25.97
2019-05-26T02:54:07.968Z,24.67
2019-05-26T02:59:33.219Z,22.57
2019-05-26T03:05:01.637Z,25.67
2019-05-26T03:10:27.813Z,29.27
2019-05-26T03:15:45.904Z,26.57
2019-05-26T03:21:14.424Z,23.73
2019-05-26T03:26:39.796Z,28.20
2019-05-26T03:32:05.659Z,24.30
2019-05-26T03:37:27.762Z,24.40
2019-05-26T03:42:36.526Z,30.83
2019-05-26T03:47:47.718Z,26.77
2019-05-26T03:53:14.021Z,23.87
2019-05-26T03:58:39.346Z,24.03
2019-05-26T04:04:05.738Z,26.63
2019-05-26T04:09:13.932Z,26.00
2019-05-26T04:14:23.962Z,25.97
2019-05-26T04:19:49.792Z,21.67
2019-05-26T04:25:08.701Z,28.17
2019-05-26T04:30:18.606Z,22.53
2019-05-26T04:35:26.284Z,22.83
2019-05-26T04:40:38.680Z,21.20
2019-05-26T04:45:47.433Z,22.70
2019-05-26T04:50:54.610Z,23.73
2019-05-26T04:56:02.971Z,29.97
2019-05-26T05:01:11.267Z,25.33
2019-05-26T05:06:36.820Z,26.37
2019-05-26T05:12:03.135Z,21.00
2019-05-26T05:17:29.231Z,19.73
2019-05-26T05:22:54.795Z,20.57
2019-05-26T05:28:20.005Z,25.33
2019-05-26T05:33:46.845Z,26.43
2019-05-26T05:38:55.426Z,19.77
2019-05-26T05:44:11.126Z,20.23
2019-05-26T05:49:19.877Z,20.30
2019-05-26T05:54:30.765Z,22.57
2019-05-26T05:59:51.397Z,23.47
2019-05-26T06:05:00.402Z,25.17
2019-05-26T06:10:11.868Z,27.40
2019-05-26T06:15:21.715Z,29.60
2019-05-26T06:20:32.370Z,25.63
2019-05-26T06:25:42.953Z,24.13
2019-05-26T06:30:52.223Z,25.73
2019-05-26T06:36:00.728Z,25.77
2019-05-26T06:41:12.229Z,31.07
2019-05-26T06:46:21.974Z,24.80
2019-05-26T06:51:44.432Z,20.00
2019-05-26T06:56:51.750Z,20.23
2019-05-26T07:02:00.237Z,22.37
2019-05-26T07:07:11.031Z,20.97
2019-05-26T07:12:35.468Z,24.13
2019-05-26T07:18:00.915Z,17.17
2019-05-26T07:23:27.045Z,17.03
2019-05-26T07:28:52.760Z,15.97
2019-05-26T07:34:02.817Z,19.20
2019-05-26T07:39:13.468Z,14.97
2019-05-26T07:44:22.302Z,19.73
2019-05-26T07:49:31.702Z,14.13
2019-05-26T07:54:51.816Z,13.80
2019-05-26T08:00:00.254Z,18.90
2019-05-26T08:05:14.427Z,15.73
2019-05-26T08:10:26.204Z,13.33
2019-05-26T08:15:51.372Z,13.10
2019-05-26T08:21:03.070Z,14.93
2019-05-26T08:26:15.710Z,13.70
2019-05-26T08:31:26.454Z,12.47
2019-05-26T08:36:42.292Z,8.67
2019-05-26T08:41:51.474Z,8.53
2019-05-26T08:46:59.425Z,11.90
2019-05-26T08:52:09.885Z,13.67
2019-05-26T08:57:18.119Z,8.13
2019-05-26T09:02:33.894Z,7.30
2019-05-26T09:07:42.932Z,8.33
2019-05-26T09:13:00.930Z,8.17
2019-05-26T09:18:20.390Z,9.00
2019-05-26T09:23:45.914Z,7.37
2019-05-26T09:29:12.473Z,7.50
2019-05-26T09:34:22.447Z,7.47
2019-05-26T09:39:47.585Z,7.07
2019-05-26T09:44:57.491Z,6.37
2019-05-26T09:50:09.895Z,6.73
2019-05-26T09:55:35.974Z,8.43
2019-05-26T10:01:02.305Z,7.67
2019-05-26T10:06:11.047Z,7.80
2019-05-26T10:11:18.179Z,6.30
2019-05-26T10:16:30.736Z,6.70
2019-05-26T10:21:41.388Z,12.27
2019-05-26T10:26:53.554Z,8.27
2019-05-26T10:32:01.795Z,17.77
2019-05-26T10:37:11.955Z,7.90
2019-05-26T10:42:21.682Z,6.50
2019-05-26T10:47:47.363Z,6.93
2019-05-26T10:52:56.244Z,7.97
2019-05-26T10:58:05.891Z,7.07
2019-05-26T11:03:15.742Z,7.90
2019-05-26T11:08:26.212Z,5.97
2019-05-26T11:14:02.275Z,5.90
2019-05-26T11:19:01.776Z,8.10
2019-05-26T11:24:14.677Z,7.67
2019-05-26T11:29:24.459Z,6.53
2019-05-26T11:34:36.651Z,7.83
2019-05-26T11:40:23.519Z,4.67
2019-05-26T11:45:48.882Z,4.83
2019-05-26T11:51:01.992Z,5.83
2019-05-26T11:56:12.465Z,6.17
2019-05-26T12:01:23.521Z,7.07
2019-05-26T12:06:33.387Z,5.80
2019-05-26T12:11:43.577Z,4.90
2019-05-26T12:16:51.705Z,6.73
2019-05-26T12:21:59.946Z,7.70
2019-05-26T12:27:09.349Z,4.23
2019-05-26T12:32:36.049Z,4.30
2019-05-26T12:38:01.637Z,8.60
2019-05-26T12:43:10.933Z,3.43
2019-05-26T12:48:26.340Z,5.47
2019-05-26T12:53:51.508Z,5.10
2019-05-26T12:58:58.797Z,3.27
2019-05-26T13:04:08.316Z,3.30
2019-05-26T13:09:19.347Z,4.00
2019-05-26T13:14:31.761Z,9.90
2019-05-26T13:19:40.835Z,4.90
2019-05-26T13:25:08.631Z,2.80
2019-05-26T13:30:23.815Z,4.43
2019-05-26T13:35:42.439Z,3.77
2019-05-26T13:40:53.094Z,5.53
2019-05-26T13:46:01.986Z,3.13
2019-05-26T13:51:13.925Z,4.57
2019-05-26T13:56:24.441Z,4.67
2019-05-26T14:01:43.859Z,3.93
2019-05-26T14:07:07.315Z,3.63
2019-05-26T14:12:15.494Z,4.30
2019-05-26T14:17:35.159Z,3.03
2019-05-26T14:22:44.874Z,4.13
2019-05-26T14:28:12.523Z,2.93
2019-05-26T14:33:23.836Z,4.53
2019-05-26T14:38:43.554Z,3.00
2019-05-26T14:43:51.363Z,3.87
2019-05-26T14:49:02.677Z,3.03
2019-05-26T14:54:13.986Z,2.80
2019-05-26T14:59:22.898Z,3.40
2019-05-26T15:04:50.660Z,4.00
2019-05-26T15:09:57.931Z,3.00
2019-05-26T15:15:07.966Z,2.80
2019-05-26T15:20:15.679Z,3.50
2019-05-26T15:25:24.792Z,2.73
2019-05-26T15:30:37.027Z,2.73
2019-05-26T15:35:59.348Z,4.67
2019-05-26T15:41:24.979Z,3.07
2019-05-26T15:46:51.011Z,4.03
2019-05-26T15:52:03.618Z,3.10
2019-05-26T15:57:13.668Z,6.03
2019-05-26T16:02:39.192Z,3.80
2019-05-26T16:08:04.810Z,3.97
2019-05-26T16:13:14.324Z,3.07
2019-05-26T16:18:22.865Z,4.43
2019-05-26T16:23:48.145Z,3.13
2019-05-26T16:29:07.308Z,2.80
2019-05-26T16:34:17.674Z,2.77
2019-05-26T16:39:37.303Z,4.23
2019-05-26T16:45:00.275Z,2.93
2019-05-26T16:50:11.873Z,6.00
2019-05-26T16:55:29.557Z,7.83
2019-05-26T17:00:40.814Z,3.00
2019-05-26T17:05:48.254Z,7.50
2019-05-26T17:11:13.774Z,4.53
2019-05-26T17:16:24.283Z,7.03
2019-05-26T17:21:49.686Z,3.73
2019-05-26T17:27:16.622Z,4.73
2019-05-26T17:32:24.873Z,3.03
2019-05-26T17:37:34.646Z,4.27
2019-05-26T17:42:45.275Z,3.20
2019-05-26T17:47:54.954Z,3.33
2019-05-26T17:53:04.638Z,3.20
2019-05-26T17:58:21.091Z,3.33
2019-05-26T18:03:28.292Z,3.30
2019-05-26T18:08:36.533Z,4.67
2019-05-26T18:13:46.641Z,6.13
2019-05-26T18:18:55.935Z,4.60
2019-05-26T18:24:03.138Z,3.47
2019-05-26T18:29:10.865Z,5.20
2019-05-26T18:34:18.565Z,4.40
2019-05-26T18:39:26.825Z,4.43
2019-05-26T18:44:37.640Z,4.00
2019-05-26T18:49:45.441Z,5.07
2019-05-26T18:54:54.029Z,5.43
2019-05-26T19:00:21.892Z,4.43
2019-05-26T19:05:49.253Z,5.57
2019-05-26T19:11:08.918Z,4.93
2019-05-26T19:16:35.537Z,4.63
2019-05-26T19:22:00.813Z,5.83
2019-05-26T19:27:15.417Z,5.00
2019-05-26T19:32:24.952Z,7.27
2019-05-26T19:37:51.181Z,4.30
2019-05-26T19:43:00.809Z,4.83
2019-05-26T19:48:15.832Z,8.20
2019-05-26T19:53:22.996Z,9.03
2019-05-26T19:58:49.281Z,13.93
2019-05-26T20:04:15.770Z,6.53
2019-05-26T20:09:40.955Z,9.40
2019-05-26T20:15:03.730Z,8.67
2019-05-26T20:20:13.245Z,5.83
2019-05-26T20:25:21.786Z,5.67
2019-05-26T20:30:40.840Z,5.50
2019-05-26T20:35:50.988Z,7.20
2019-05-26T20:41:17.179Z,6.90
2019-05-26T20:46:43.795Z,6.87
2019-05-26T20:51:51.743Z,6.33
2019-05-26T20:57:17.904Z,6.57
2019-05-26T21:02:32.464Z,5.77
2019-05-26T21:07:42.174Z,7.70
2019-05-26T21:12:58.958Z,7.03
2019-05-26T21:18:20.753Z,7.07
2019-05-26T21:23:46.270Z,8.20
2019-05-26T21:29:06.942Z,5.90
2019-05-26T21:34:18.246Z,7.77
2019-05-26T21:39:30.250Z,8.23
2019-05-26T21:44:55.409Z,5.77
2019-05-26T21:50:02.549Z,7.23
2019-05-26T21:55:28.009Z,7.33
2019-05-26T22:00:54.855Z,12.00
2019-05-26T22:06:23.403Z,8.60
2019-05-26T22:11:43.430Z,9.00
2019-05-26T22:16:52.415Z,7.90
2019-05-26T22:21:59.932Z,8.03
2019-05-26T22:27:09.299Z,7.73
2019-05-26T22:32:18.097Z,8.47
2019-05-26T22:37:31.173Z,7.23
2019-05-26T22:42:38.541Z,7.33
2019-05-26T23:09:36.371Z,9.10
2019-05-26T23:15:01.839Z,10.03
2019-05-26T23:20:11.898Z,8.53
2019-05-26T23:25:19.623Z,10.57
2019-05-26T23:30:45.278Z,10.50
2019-05-26T23:36:13.336Z,9.37
2019-05-26T23:41:23.314Z,10.67
2019-05-26T23:46:42.483Z,10.03
2019-05-26T23:51:57.332Z,9.63
2019-05-26T23:57:05.373Z,9.67
